Mijdrecht, Netherlands
Current Conditions -  °F | °C
As of 5:55 AM on Tuesday 21 Oct 2014 (Local Time) from EHAM Reporting Station
Few Clouds Few Clouds  
Wind Chill: 55°   Ceiling: Unl
Heat Index: 55°   Visibility: 6mi
Dew Point: 54°   Wind: 16mph
Humidity: 94%   Direction: 200°SSW
Pressure: 29.71"   Gusts: NA
Location:  52.21°N, 4.86°E
Report Text: EHAM 210355Z 20014KT 9999 FEW009 13/12 Q1006 NOSIG
Loading
Personal Weather Stations






























Interactive Weather Map
Tropical Storm Tracking
New forecast layout! Learn more

10-Day Weather Forecast

Advertisements
Track Severe Weather on mobile